createdAt,value
2023-05-05T00:01:31.157Z,49.38
2023-05-05T00:03:58.304Z,49.00
2023-05-05T00:06:25.540Z,48.93
2023-05-05T00:08:52.587Z,49.19
2023-05-05T00:11:19.650Z,49.79
2023-05-05T00:13:47.126Z,49.67
2023-05-05T00:16:14.640Z,49.44
2023-05-05T00:18:41.851Z,48.73
2023-05-05T00:21:08.964Z,49.32
2023-05-05T00:23:36.112Z,50.69
2023-05-05T00:26:03.287Z,50.69
2023-05-05T00:28:30.750Z,51.58
2023-05-05T00:30:58.454Z,51.82
2023-05-05T00:33:26.019Z,52.31
2023-05-05T00:35:53.263Z,54.89
2023-05-05T00:38:20.756Z,54.69
2023-05-05T00:40:48.042Z,55.70
2023-05-05T00:43:15.256Z,54.95
2023-05-05T00:45:44.750Z,53.77
2023-05-05T00:48:12.132Z,52.84
2023-05-05T00:50:39.873Z,52.19
2023-05-05T00:53:07.468Z,54.36
2023-05-05T00:55:35.355Z,55.16
2023-05-05T00:58:04.222Z,57.66
2023-05-05T01:00:32.122Z,56.40
2023-05-05T01:02:59.826Z,55.39
2023-05-05T01:05:52.905Z,52.82
2023-05-05T01:08:42.736Z,54.04
2023-05-05T01:11:31.215Z,55.41
2023-05-05T01:14:12.625Z,58.03
2023-05-05T01:16:46.493Z,59.86
2023-05-05T01:19:35.150Z,57.43
2023-05-05T01:22:04.038Z,58.41
2023-05-05T01:24:56.558Z,58.38
2023-05-05T01:27:45.477Z,58.79
2023-05-05T01:30:56.251Z,57.53
2023-05-05T01:33:32.233Z,55.35
2023-05-05T01:36:07.174Z,57.49
2023-05-05T01:38:42.501Z,60.32
2023-05-05T01:41:17.355Z,57.51
2023-05-05T01:43:49.961Z,55.82
2023-05-05T01:46:19.627Z,56.34
2023-05-05T01:48:49.146Z,57.53
2023-05-05T01:51:19.381Z,58.62
2023-05-05T01:53:47.387Z,58.46
2023-05-05T01:56:16.496Z,58.09
2023-05-05T01:58:45.976Z,59.39
2023-05-05T02:01:15.264Z,59.35
2023-05-05T02:03:44.709Z,59.85
2023-05-05T02:06:13.946Z,60.41
2023-05-05T02:08:42.130Z,62.29
2023-05-05T02:11:11.654Z,62.77
2023-05-05T02:13:42.648Z,62.25
2023-05-05T02:16:17.025Z,61.46
2023-05-05T02:18:47.325Z,57.97
2023-05-05T02:21:18.201Z,58.54
2023-05-05T02:23:47.369Z,55.46
2023-05-05T02:26:17.189Z,56.14
2023-05-05T02:29:07.420Z,54.80
2023-05-05T02:31:44.454Z,53.83
2023-05-05T02:34:16.564Z,54.01
2023-05-05T02:36:44.984Z,53.16
2023-05-05T02:39:29.234Z,53.08
2023-05-05T02:41:59.416Z,53.06
2023-05-05T02:44:29.163Z,52.21
2023-05-05T02:46:57.727Z,51.15
2023-05-05T02:49:25.218Z,50.63
2023-05-05T02:51:58.157Z,50.87
2023-05-05T02:54:28.880Z,48.44
2023-05-05T02:56:57.930Z,48.73
2023-05-05T02:59:41.085Z,49.57
2023-05-05T03:02:31.553Z,50.58
2023-05-05T03:05:11.292Z,51.41
2023-05-05T03:07:56.754Z,51.41
2023-05-05T03:10:40.138Z,52.15
2023-05-05T03:13:11.577Z,51.93
2023-05-05T03:15:46.908Z,52.02
2023-05-05T03:18:18.302Z,51.49
2023-05-05T03:20:52.035Z,51.59
2023-05-05T03:23:21.173Z,51.16
2023-05-05T03:25:51.644Z,52.13
2023-05-05T03:28:29.377Z,52.62
2023-05-05T03:30:59.330Z,52.77
2023-05-05T03:33:26.508Z,51.51
2023-05-05T03:35:58.036Z,51.10
2023-05-05T03:38:25.135Z,53.34
2023-05-05T03:40:52.332Z,52.28
2023-05-05T03:43:22.096Z,54.49
2023-05-05T03:45:50.654Z,56.82
2023-05-05T03:48:18.526Z,56.05
2023-05-05T03:50:46.350Z,55.03
2023-05-05T03:53:14.625Z,57.12
2023-05-05T03:55:42.557Z,56.38
2023-05-05T03:58:11.254Z,57.61
2023-05-05T04:00:38.392Z,58.75
2023-05-05T04:03:06.048Z,57.75
2023-05-05T04:05:33.099Z,59.09
2023-05-05T04:08:00.347Z,60.04
2023-05-05T04:10:27.495Z,61.56
2023-05-05T04:12:54.639Z,61.61
2023-05-05T04:15:22.106Z,63.67
2023-05-05T04:17:49.680Z,63.69
2023-05-05T04:20:17.057Z,63.19
2023-05-05T04:22:44.231Z,62.14
2023-05-05T04:25:11.254Z,62.48
2023-05-05T04:27:38.411Z,63.71
2023-05-05T04:30:07.034Z,65.29
2023-05-05T04:32:35.984Z,65.96
2023-05-05T04:35:03.009Z,64.87
2023-05-05T04:37:30.398Z,64.21
2023-05-05T04:39:58.790Z,63.69
2023-05-05T04:42:26.143Z,66.73
2023-05-05T04:44:53.254Z,65.89
2023-05-05T04:47:20.251Z,67.33
2023-05-05T04:49:47.230Z,65.54
2023-05-05T04:52:14.359Z,66.48
2023-05-05T04:54:41.531Z,66.01
2023-05-05T04:57:08.587Z,67.29
2023-05-05T04:59:36.693Z,66.86
2023-05-05T05:02:03.768Z,65.27
2023-05-05T05:04:30.772Z,66.38
2023-05-05T05:06:59.353Z,68.92
2023-05-05T05:09:27.149Z,68.52
2023-05-05T05:11:54.148Z,68.54
2023-05-05T05:14:21.893Z,69.31
2023-05-05T05:16:52.381Z,70.04
2023-05-05T05:19:21.913Z,70.42
2023-05-05T05:21:49.164Z,70.49
2023-05-05T05:24:16.424Z,69.99
2023-05-05T05:26:44.136Z,70.32
2023-05-05T05:29:11.201Z,69.71
2023-05-05T05:31:39.859Z,70.11
2023-05-05T05:34:07.290Z,67.52
2023-05-05T05:36:35.159Z,67.52
2023-05-05T05:39:03.855Z,66.46
2023-05-05T05:41:30.923Z,67.95
2023-05-05T05:43:57.993Z,66.48
2023-05-05T05:46:25.392Z,66.20
2023-05-05T05:48:52.973Z,68.21
2023-05-05T05:51:20.448Z,65.77
2023-05-05T05:53:48.879Z,66.33
2023-05-05T05:56:15.876Z,64.54
2023-05-05T05:58:43.480Z,61.93
2023-05-05T06:01:10.986Z,61.30
2023-05-05T06:03:38.251Z,63.07
2023-05-05T06:06:07.642Z,62.86
2023-05-05T06:08:34.940Z,62.62
2023-05-05T06:11:02.006Z,62.87
2023-05-05T06:13:29.788Z,62.61
2023-05-05T06:15:56.893Z,63.75
2023-05-05T06:18:24.121Z,63.73
2023-05-05T06:20:52.515Z,64.05
2023-05-05T06:23:22.355Z,64.64
2023-05-05T06:25:55.766Z,65.27
2023-05-05T06:28:22.889Z,66.90
2023-05-05T06:30:49.896Z,65.87
2023-05-05T06:33:16.929Z,66.12
2023-05-05T06:35:43.935Z,65.52
2023-05-05T06:38:11.164Z,65.12
2023-05-05T06:40:38.160Z,64.83
2023-05-05T06:43:05.428Z,66.64
2023-05-05T06:45:37.088Z,65.80
2023-05-05T06:48:04.168Z,63.97
2023-05-05T06:50:31.160Z,63.88
2023-05-05T06:52:58.130Z,63.80
2023-05-05T06:55:25.495Z,62.99
2023-05-05T06:57:52.630Z,63.88
2023-05-05T07:00:20.064Z,63.08
2023-05-05T07:02:47.717Z,62.14
2023-05-05T07:05:14.764Z,62.59
2023-05-05T07:07:52.624Z,62.87
2023-05-05T07:10:19.982Z,61.69
2023-05-05T07:12:47.120Z,62.56
2023-05-05T07:15:26.765Z,62.66
2023-05-05T07:17:55.711Z,61.76
2023-05-05T07:20:22.753Z,61.90
2023-05-05T07:22:49.743Z,59.26
2023-05-05T07:25:16.901Z,57.31
2023-05-05T07:27:44.054Z,57.98
2023-05-05T07:30:15.297Z,61.17
2023-05-05T07:32:44.688Z,59.21
2023-05-05T07:35:11.880Z,58.10
2023-05-05T07:37:38.846Z,58.89
2023-05-05T07:40:06.744Z,60.35
2023-05-05T07:42:34.025Z,57.00
2023-05-05T07:45:01.006Z,56.85
2023-05-05T07:47:28.048Z,55.32
2023-05-05T07:49:55.153Z,54.95
2023-05-05T07:52:33.235Z,56.76
2023-05-05T07:55:09.316Z,56.36
2023-05-05T07:57:36.391Z,57.43
2023-05-05T08:00:03.796Z,57.21
2023-05-05T08:02:39.379Z,59.25
2023-05-05T08:05:07.277Z,56.84
2023-05-05T08:07:36.618Z,56.85
2023-05-05T08:10:03.828Z,56.23
2023-05-05T08:12:30.869Z,56.23
2023-05-05T08:14:57.820Z,58.55
2023-05-05T08:17:27.125Z,59.25
2023-05-05T08:19:54.214Z,59.92
2023-05-05T08:22:24.050Z,60.27
2023-05-05T08:24:51.059Z,63.81
2023-05-05T08:27:18.083Z,64.92
2023-05-05T08:29:45.100Z,65.97
2023-05-05T08:32:12.210Z,67.40
2023-05-05T08:34:39.376Z,67.62
2023-05-05T08:37:06.507Z,66.99
2023-05-05T08:39:33.552Z,65.25
2023-05-05T08:42:00.712Z,63.83
2023-05-05T08:44:29.004Z,67.24
2023-05-05T08:46:56.833Z,69.36
2023-05-05T08:49:25.528Z,68.92
2023-05-05T08:51:54.251Z,67.20
2023-05-05T08:54:27.410Z,69.98
2023-05-05T08:56:57.069Z,67.97
2023-05-05T08:59:25.298Z,65.82
2023-05-05T09:02:12.744Z,66.55
2023-05-05T09:04:40.076Z,65.99
2023-05-05T09:07:07.475Z,68.30
2023-05-05T09:09:34.636Z,67.93
2023-05-05T09:12:03.131Z,67.24
2023-05-05T09:14:30.195Z,66.35
2023-05-05T09:16:57.456Z,64.70
2023-05-05T09:19:24.607Z,66.78
2023-05-05T09:21:52.101Z,69.21
2023-05-05T09:24:19.326Z,66.76
2023-05-05T09:26:47.676Z,65.66
2023-05-05T09:29:19.280Z,64.29
2023-05-05T09:32:05.499Z,65.76
2023-05-05T09:34:36.311Z,62.73
2023-05-05T09:37:04.280Z,62.89
2023-05-05T09:39:31.516Z,62.92
2023-05-05T09:41:58.862Z,62.67
2023-05-05T09:44:37.010Z,56.65
2023-05-05T09:47:09.557Z,55.45
2023-05-05T09:49:39.527Z,54.77
2023-05-05T09:52:16.781Z,55.30
2023-05-05T09:54:44.373Z,51.80
2023-05-05T09:57:28.862Z,52.67
2023-05-05T10:00:04.334Z,52.70
2023-05-05T10:02:38.426Z,51.61
2023-05-05T10:05:08.089Z,50.42
2023-05-05T10:07:36.227Z,50.59
2023-05-05T10:10:09.436Z,50.99
2023-05-05T10:12:37.942Z,52.92
2023-05-05T10:15:07.364Z,50.48
2023-05-05T10:17:54.313Z,49.16
2023-05-05T10:20:33.626Z,48.35
2023-05-05T10:23:05.727Z,48.21
2023-05-05T10:25:46.616Z,47.78
2023-05-05T10:28:22.330Z,48.83
2023-05-05T10:30:53.005Z,49.10
2023-05-05T10:33:34.244Z,50.38
2023-05-05T10:36:05.352Z,51.18
2023-05-05T10:38:34.269Z,52.63
2023-05-05T10:41:05.016Z,52.19
2023-05-05T10:43:32.779Z,53.23
2023-05-05T10:46:00.845Z,53.63
2023-05-05T10:48:57.828Z,54.61
2023-05-05T10:51:39.844Z,56.14
2023-05-05T10:54:37.164Z,55.25
2023-05-05T10:57:09.898Z,55.78
2023-05-05T10:59:37.215Z,55.05
2023-05-05T11:02:28.388Z,53.44
2023-05-05T11:05:17.701Z,52.66
2023-05-05T11:07:46.604Z,54.33
2023-05-05T11:10:15.978Z,52.44
2023-05-05T11:12:52.444Z,52.25
2023-05-05T11:15:31.826Z,51.25
2023-05-05T11:18:03.132Z,52.89
2023-05-05T11:20:39.880Z,50.73
2023-05-05T11:23:07.618Z,52.49
2023-05-05T11:25:39.254Z,54.09
2023-05-05T11:28:14.413Z,53.54
2023-05-05T11:30:57.559Z,52.70
2023-05-05T11:33:38.300Z,53.57
2023-05-05T11:36:13.334Z,53.00
2023-05-05T11:39:31.636Z,51.22
2023-05-05T11:42:20.497Z,51.31
2023-05-05T11:44:47.772Z,52.17
2023-05-05T11:47:14.783Z,53.29
2023-05-05T11:49:41.875Z,53.67
2023-05-05T11:52:12.479Z,53.69
2023-05-05T11:54:48.202Z,53.71
2023-05-05T11:57:21.807Z,52.39
2023-05-05T11:59:54.980Z,52.10
2023-05-05T12:02:22.827Z,52.01
2023-05-05T12:04:51.235Z,52.08
2023-05-05T12:07:19.698Z,51.28
2023-05-05T12:09:47.978Z,52.15
2023-05-05T12:12:15.817Z,52.26
2023-05-05T12:14:54.354Z,52.29
2023-05-05T12:17:23.013Z,51.63
2023-05-05T12:19:54.815Z,51.99
2023-05-05T12:22:24.442Z,52.31
2023-05-05T12:24:59.073Z,49.56
2023-05-05T12:27:27.603Z,49.62
2023-05-05T12:29:56.581Z,50.32
2023-05-05T12:32:30.493Z,49.31
2023-05-05T12:34:57.751Z,48.38
2023-05-05T12:37:26.935Z,49.10
2023-05-05T12:39:55.169Z,46.32
2023-05-05T12:42:22.775Z,45.04
2023-05-05T12:44:50.128Z,45.00
2023-05-05T12:47:33.591Z,42.34
2023-05-05T12:50:03.019Z,41.46
2023-05-05T12:52:45.326Z,41.82
2023-05-05T12:55:13.265Z,42.03
2023-05-05T12:58:00.921Z,40.76
2023-05-05T13:00:29.283Z,40.55
2023-05-05T13:02:57.073Z,41.20
2023-05-05T13:05:34.009Z,41.57
2023-05-05T13:08:01.119Z,41.85
2023-05-05T13:10:28.529Z,43.52
2023-05-05T13:12:56.951Z,45.19
2023-05-05T13:15:25.198Z,46.02
2023-05-05T13:18:00.325Z,45.31
2023-05-05T13:20:27.666Z,45.45
2023-05-05T13:22:54.817Z,45.78
2023-05-05T13:25:21.912Z,44.77
2023-05-05T13:27:49.158Z,44.55
2023-05-05T13:30:16.273Z,43.74
2023-05-05T13:32:43.526Z,42.63
2023-05-05T13:35:12.145Z,42.71
2023-05-05T13:37:41.603Z,42.72
2023-05-05T13:40:09.477Z,42.54
2023-05-05T13:42:36.580Z,40.69
2023-05-05T13:45:03.970Z,41.16
2023-05-05T13:47:32.227Z,41.50
2023-05-05T13:49:59.598Z,39.98
2023-05-05T13:52:27.733Z,40.34
2023-05-05T13:54:55.762Z,40.97
2023-05-05T13:57:23.366Z,41.15
2023-05-05T13:59:50.733Z,41.43
2023-05-05T14:02:17.788Z,41.07
2023-05-05T14:04:45.014Z,41.05
2023-05-05T14:07:12.074Z,41.77
2023-05-05T14:09:39.183Z,41.06
2023-05-05T14:12:06.402Z,41.14
2023-05-05T14:14:34.500Z,41.56
2023-05-05T14:17:01.675Z,41.56
2023-05-05T14:19:29.154Z,40.71
2023-05-05T14:21:56.323Z,40.98
2023-05-05T14:24:23.429Z,40.61
2023-05-05T14:26:50.555Z,39.73
2023-05-05T14:29:17.677Z,38.76
2023-05-05T14:31:44.761Z,38.91
2023-05-05T14:34:11.864Z,38.31
2023-05-05T14:36:39.023Z,37.45
2023-05-05T14:39:06.127Z,37.35
2023-05-05T14:41:33.241Z,37.31
2023-05-05T14:44:00.461Z,37.55
2023-05-05T14:46:27.752Z,37.54
2023-05-05T14:48:55.059Z,37.14
2023-05-05T14:51:22.331Z,37.66
2023-05-05T14:53:49.974Z,38.08
2023-05-05T14:56:17.471Z,37.57
2023-05-05T14:58:44.585Z,38.49
2023-05-05T15:01:11.753Z,38.05
2023-05-05T15:03:38.900Z,38.33
2023-05-05T15:06:07.379Z,38.11
2023-05-05T15:08:34.723Z,38.02
2023-05-05T15:11:01.920Z,37.65
2023-05-05T15:13:29.824Z,38.10
2023-05-05T15:15:57.220Z,37.98
2023-05-05T15:18:24.375Z,37.75
2023-05-05T15:20:51.456Z,38.20
2023-05-05T15:23:18.530Z,37.87
2023-05-05T15:25:45.797Z,37.54
2023-05-05T15:28:12.926Z,36.93
2023-05-05T15:30:40.129Z,36.04
2023-05-05T15:33:07.354Z,36.28
2023-05-05T15:35:34.601Z,36.78
2023-05-05T15:38:01.863Z,37.62
2023-05-05T15:40:29.158Z,36.25
2023-05-05T15:42:56.244Z,35.71
2023-05-05T15:45:23.733Z,34.79
2023-05-05T15:47:51.143Z,33.17
2023-05-05T15:50:18.568Z,33.21
2023-05-05T15:52:47.180Z,31.97
2023-05-05T15:55:16.116Z,33.46
2023-05-05T15:57:43.228Z,31.74
2023-05-05T16:00:10.836Z,31.66
2023-05-05T16:02:38.143Z,32.29
2023-05-05T16:05:06.001Z,33.43
2023-05-05T16:07:33.276Z,32.87
2023-05-05T16:10:00.436Z,33.63
2023-05-05T16:12:27.531Z,34.71
2023-05-05T16:14:54.662Z,35.33
2023-05-05T16:17:22.758Z,33.42
2023-05-05T16:19:50.161Z,34.14
2023-05-05T16:22:17.490Z,33.29
2023-05-05T16:24:44.571Z,33.38
2023-05-05T16:27:11.656Z,33.35
2023-05-05T16:29:38.931Z,33.94
2023-05-05T16:32:06.433Z,34.72
2023-05-05T16:34:33.812Z,35.61
2023-05-05T16:37:01.359Z,34.91
2023-05-05T16:39:28.523Z,35.22
2023-05-05T16:41:55.826Z,35.41
2023-05-05T16:44:22.915Z,36.42
2023-05-05T16:46:50.019Z,36.29
2023-05-05T16:49:17.234Z,36.36
2023-05-05T16:51:44.470Z,35.84
2023-05-05T16:54:11.640Z,36.22
2023-05-05T16:56:38.711Z,36.06
2023-05-05T16:59:06.361Z,36.53
2023-05-05T17:01:34.962Z,36.22
2023-05-05T17:04:02.667Z,36.41
2023-05-05T17:06:33.298Z,36.80
2023-05-05T17:09:00.670Z,36.10
2023-05-05T17:11:27.842Z,37.08
2023-05-05T17:13:55.013Z,36.59
2023-05-05T17:16:22.249Z,36.68
2023-05-05T17:18:49.513Z,36.44
2023-05-05T17:21:16.704Z,37.23
2023-05-05T17:23:43.858Z,37.08
2023-05-05T17:26:10.989Z,36.28
2023-05-05T17:28:38.282Z,38.34
2023-05-05T17:31:05.840Z,37.67
2023-05-05T17:33:32.996Z,37.86
2023-05-05T17:36:00.168Z,38.73
2023-05-05T17:38:27.260Z,39.44
2023-05-05T17:40:54.349Z,40.00
2023-05-05T17:43:21.494Z,38.24
2023-05-05T17:45:48.689Z,40.59
2023-05-05T17:48:15.949Z,38.02
2023-05-05T17:50:43.624Z,38.41
2023-05-05T17:53:11.260Z,38.13
2023-05-05T17:55:38.457Z,37.60
2023-05-05T17:58:05.580Z,38.77
2023-05-05T18:00:32.689Z,38.13
2023-05-05T18:03:01.163Z,37.01
2023-05-05T18:05:28.630Z,40.63
2023-05-05T18:07:55.816Z,42.16
2023-05-05T18:10:23.432Z,42.08
2023-05-05T18:12:50.802Z,41.74
2023-05-05T18:15:17.914Z,42.11
2023-05-05T18:17:45.124Z,40.42
2023-05-05T18:20:12.360Z,41.96
2023-05-05T18:22:39.484Z,41.68
2023-05-05T18:25:08.270Z,40.64
2023-05-05T18:27:36.140Z,41.63
2023-05-05T18:30:04.913Z,41.76
2023-05-05T18:32:34.034Z,43.11
2023-05-05T18:35:01.376Z,43.93
2023-05-05T18:37:28.611Z,43.35
2023-05-05T18:39:55.788Z,43.19
2023-05-05T18:42:23.256Z,42.62
2023-05-05T18:44:50.467Z,44.06
2023-05-05T18:47:17.561Z,44.29
2023-05-05T18:49:45.564Z,43.95
2023-05-05T18:52:13.649Z,42.48
2023-05-05T18:54:41.192Z,43.10
2023-05-05T18:57:08.295Z,43.28
2023-05-05T18:59:35.443Z,44.01
2023-05-05T19:02:02.990Z,44.03
2023-05-05T19:04:31.734Z,43.37
2023-05-05T19:07:00.171Z,44.07
2023-05-05T19:09:27.842Z,43.68
2023-05-05T19:11:55.119Z,43.01
2023-05-05T19:14:22.957Z,42.00
2023-05-05T19:16:50.106Z,42.70
2023-05-05T19:19:17.234Z,44.07
2023-05-05T19:21:44.448Z,43.55
2023-05-05T19:24:11.833Z,43.91
2023-05-05T19:26:38.951Z,41.78
2023-05-05T19:29:06.202Z,42.77
2023-05-05T19:31:33.393Z,42.67
2023-05-05T19:34:02.866Z,42.87
2023-05-05T19:36:31.871Z,42.19
2023-05-05T19:39:01.878Z,43.56
2023-05-05T19:41:30.938Z,42.65
2023-05-05T19:43:58.502Z,43.79
2023-05-05T19:46:26.716Z,43.80
2023-05-05T19:48:54.256Z,43.93
2023-05-05T19:51:21.681Z,44.66
2023-05-05T19:53:48.856Z,43.56
2023-05-05T19:56:17.105Z,41.40
2023-05-05T19:58:57.894Z,40.41
2023-05-05T20:01:25.746Z,40.30
2023-05-05T20:03:55.529Z,40.60
2023-05-05T20:06:23.052Z,40.10
2023-05-05T20:08:50.357Z,39.66
2023-05-05T20:11:17.613Z,40.36
2023-05-05T20:13:44.835Z,40.50
2023-05-05T20:16:12.364Z,41.19
2023-05-05T20:18:40.394Z,40.34
2023-05-05T20:21:07.662Z,40.77
2023-05-05T20:23:34.959Z,40.50
2023-05-05T20:26:02.209Z,40.20
2023-05-05T20:28:31.684Z,40.69
2023-05-05T20:31:00.736Z,40.78
2023-05-05T20:33:28.989Z,40.47
2023-05-05T20:35:56.248Z,40.84
2023-05-05T20:38:24.143Z,41.04
2023-05-05T20:40:52.333Z,40.14
2023-05-05T20:43:19.546Z,40.53
2023-05-05T20:45:46.741Z,41.13
2023-05-05T20:48:13.889Z,40.36
2023-05-05T20:50:41.838Z,41.09
2023-05-05T20:53:10.904Z,40.74
2023-05-05T20:55:38.026Z,41.26
2023-05-05T20:58:07.519Z,41.55
2023-05-05T21:00:34.881Z,41.10
2023-05-05T21:03:05.124Z,41.98
2023-05-05T21:05:32.507Z,41.50
2023-05-05T21:08:01.033Z,42.28
2023-05-05T21:10:33.205Z,41.50
2023-05-05T21:13:02.637Z,42.20
2023-05-05T21:15:30.437Z,41.80
2023-05-05T21:17:57.749Z,42.16
2023-05-05T21:20:24.924Z,42.42
2023-05-05T21:22:52.063Z,42.14
2023-05-05T21:25:21.165Z,42.09
2023-05-05T21:27:49.176Z,42.50
2023-05-05T21:30:17.303Z,42.64
2023-05-05T21:32:44.882Z,42.71
2023-05-05T21:35:12.302Z,42.76
2023-05-05T21:37:40.181Z,42.91
2023-05-05T21:40:14.164Z,43.35
2023-05-05T21:42:43.201Z,42.77
2023-05-05T21:45:11.396Z,43.29
2023-05-05T21:47:38.544Z,43.79
2023-05-05T21:50:06.610Z,44.47
2023-05-05T21:52:34.197Z,43.78
2023-05-05T21:55:01.476Z,44.75
2023-05-05T21:57:31.903Z,44.47
2023-05-05T21:59:58.989Z,44.52
2023-05-05T22:02:26.237Z,44.43
2023-05-05T22:04:53.553Z,44.38
2023-05-05T22:07:20.815Z,44.79
2023-05-05T22:09:47.987Z,45.15
2023-05-05T22:12:15.213Z,46.29
2023-05-05T22:14:42.240Z,45.91
2023-05-05T22:17:09.298Z,46.95
2023-05-05T22:19:36.432Z,46.55
2023-05-05T22:22:03.703Z,46.09
2023-05-05T22:24:30.938Z,46.63
2023-05-05T22:26:58.370Z,47.09
2023-05-05T22:29:25.642Z,47.23
2023-05-05T22:31:53.233Z,46.80
2023-05-05T22:34:21.962Z,46.52
2023-05-05T22:36:49.932Z,46.47
2023-05-05T22:39:18.762Z,47.01
2023-05-05T22:41:46.992Z,47.19
2023-05-05T22:44:14.108Z,47.48
2023-05-05T22:46:41.367Z,47.68
2023-05-05T22:49:08.853Z,47.57
2023-05-05T22:51:36.011Z,47.28
2023-05-05T22:54:03.408Z,47.22
2023-05-05T22:56:30.595Z,47.22
2023-05-05T22:58:57.745Z,48.05
2023-05-05T23:01:24.913Z,48.96
2023-05-05T23:03:52.060Z,49.46
2023-05-05T23:06:19.103Z,49.48
2023-05-05T23:08:46.398Z,50.26
2023-05-05T23:11:13.459Z,50.10
2023-05-05T23:13:40.793Z,50.25
2023-05-05T23:16:08.036Z,49.67
2023-05-05T23:18:36.144Z,49.83
2023-05-05T23:21:03.246Z,49.71
2023-05-05T23:23:31.174Z,50.57
2023-05-05T23:25:58.518Z,52.07
2023-05-05T23:28:25.744Z,52.58
2023-05-05T23:30:53.060Z,52.00
2023-05-05T23:33:20.303Z,51.82
2023-05-05T23:35:47.950Z,53.13
2023-05-05T23:38:15.034Z,53.64
2023-05-05T23:40:42.132Z,53.38
2023-05-05T23:43:09.267Z,53.12
2023-05-05T23:45:36.344Z,54.49
2023-05-05T23:48:03.691Z,54.73
2023-05-05T23:50:31.021Z,55.24
2023-05-05T23:52:58.090Z,55.21
2023-05-05T23:55:25.363Z,54.85
2023-05-05T23:57:53.225Z,54.76
